Time;durP1;ratioP1;P1;durP2;ratioP2;P2;SDS_P1;SDS_P2;PMS_P1;PMS_P2;Temp;Humidity;BMP_temperature;BMP_pressure;BME280_temperature;BME280_humidity;BME280_pressure;Samples;Min_cycle;Max_cycle;Signal;HPM_P1;HPM_P2
2023/04/26 00:01:10;;;;;;;14.38;5.75;;;;;;;3.47;100.00;101607.22;4895039;29;20083;-76
2023/04/26 00:03:36;;;;;;;21.63;5.38;;;;;;;3.48;100.00;101606.28;4909383;29;20088;-77
2023/04/26 00:06:12;;;;;;;20.55;5.78;;;;;;;3.69;100.00;101603.72;4894141;29;20028;-76
2023/04/26 00:08:41;;;;;;;16.67;5.88;;;;;;;3.72;100.00;101603.56;4892379;29;20041;-75
2023/04/26 00:11:06;;;;;;;14.68;6.40;;;;;;;3.60;100.00;101602.22;4901035;29;20086;-76
2023/04/26 00:13:32;;;;;;;14.35;5.95;;;;;;;3.67;100.00;101603.78;4899486;29;20464;-77
2023/04/26 00:15:57;;;;;;;13.85;5.80;;;;;;;3.69;100.00;101603.72;4883814;29;20151;-76
2023/04/26 00:18:23;;;;;;;36.67;7.85;;;;;;;3.64;100.00;101608.41;4899464;29;20083;-76
2023/04/26 00:20:48;;;;;;;13.73;5.50;;;;;;;3.59;100.00;101597.78;4910184;29;20157;-77
2023/04/26 00:23:14;;;;;;;16.25;5.28;;;;;;;3.53;100.00;101597.13;4876926;29;20087;-76
2023/04/26 00:25:39;;;;;;;25.02;6.03;;;;;;;3.33;100.00;101596.03;4894021;29;20141;-76
2023/04/26 00:28:05;;;;;;;20.10;6.90;;;;;;;3.53;100.00;101597.13;4868449;29;20040;-77
2023/04/26 00:30:31;;;;;;;11.95;5.40;;;;;;;3.37;100.00;101599.50;4896170;29;20043;-78
2023/04/26 00:32:56;;;;;;;15.43;6.07;;;;;;;3.45;100.00;101595.56;4911284;29;20043;-77
2023/04/26 00:35:22;;;;;;;14.65;5.80;;;;;;;3.40;100.00;101593.97;4889343;29;20491;-76
2023/04/26 00:37:47;;;;;;;15.88;5.15;;;;;;;3.41;100.00;101585.81;4891148;29;20523;-77
2023/04/26 00:40:14;;;;;;;19.17;6.45;;;;;;;3.37;100.00;101602.22;4868239;29;20036;-77
2023/04/26 00:42:40;;;;;;;13.05;5.15;;;;;;;3.35;100.00;101594.16;4902829;29;20033;-77
2023/04/26 00:45:06;;;;;;;18.20;5.35;;;;;;;3.31;100.00;101608.72;4872921;29;20164;-77
2023/04/26 00:47:35;;;;;;;17.75;5.47;;;;;;;3.23;100.00;101603.63;4910537;29;20036;-77
2023/04/26 00:50:00;;;;;;;13.23;6.13;;;;;;;3.04;100.00;101599.78;4897288;29;20404;-78
2023/04/26 00:52:26;;;;;;;17.63;6.18;;;;;;;3.15;100.00;101597.59;4884823;29;20048;-77
2023/04/26 00:54:56;;;;;;;17.38;6.68;;;;;;;3.14;100.00;101595.81;4889538;29;20064;-77
2023/04/26 00:57:22;;;;;;;13.55;5.80;;;;;;;3.10;100.00;101592.34;4897243;29;20519;-77
2023/04/26 00:59:48;;;;;;;15.80;6.07;;;;;;;3.08;100.00;101594.22;4911292;29;20068;-77
2023/04/26 01:02:13;;;;;;;13.98;5.72;;;;;;;3.13;100.00;101596.75;4876516;29;20400;-78
2023/04/26 01:04:40;;;;;;;13.20;5.93;;;;;;;3.21;100.00;101601.88;4909681;29;20052;-77
2023/04/26 01:07:06;;;;;;;19.25;6.35;;;;;;;3.24;100.00;101601.78;4894360;29;20500;-77
2023/04/26 01:09:32;;;;;;;16.02;6.47;;;;;;;3.23;100.00;101590.09;4892857;29;20032;-78
2023/04/26 01:11:59;;;;;;;19.88;6.35;;;;;;;3.20;100.00;101603.72;4885752;29;20392;-77
2023/04/26 01:14:26;;;;;;;19.67;6.28;;;;;;;3.04;100.00;101594.38;4897464;29;20473;-78
2023/04/26 01:16:51;;;;;;;19.15;5.65;;;;;;;3.08;100.00;101599.63;4889780;29;20032;-77
2023/04/26 01:19:17;;;;;;;14.70;6.10;;;;;;;2.86;100.00;101598.63;4909649;29;20041;-77
2023/04/26 01:21:44;;;;;;;24.85;6.82;;;;;;;2.82;100.00;101603.25;4905753;29;20071;-76
2023/04/26 01:24:11;;;;;;;18.85;6.25;;;;;;;2.82;100.00;101605.97;4900225;29;20392;-78
2023/04/26 01:26:47;;;;;;;13.98;6.63;;;;;;;2.82;100.00;101602.34;4903511;29;20103;-76
2023/04/26 01:29:17;;;;;;;19.23;6.60;;;;;;;2.81;100.00;101606.91;4904137;29;20032;-77
2023/04/26 01:31:42;;;;;;;17.98;7.32;;;;;;;2.87;100.00;101597.66;4897606;29;20043;-76
2023/04/26 01:34:08;;;;;;;20.10;6.60;;;;;;;3.08;100.00;101604.16;4909950;29;20492;-76
2023/04/26 01:36:33;;;;;;;14.57;6.35;;;;;;;3.16;100.00;101612.00;4899822;29;20051;-76
2023/04/26 01:38:59;;;;;;;20.40;6.63;;;;;;;3.12;100.00;101605.81;4911805;29;20132;-76
2023/04/26 01:41:24;;;;;;;21.45;6.35;;;;;;;2.98;100.00;101616.25;4911347;29;20047;-77
2023/04/26 01:43:50;;;;;;;22.80;6.75;;;;;;;2.97;100.00;101607.25;4887439;29;20470;-76
2023/04/26 01:46:15;;;;;;;27.42;7.47;;;;;;;3.02;100.00;101610.66;4881379;29;20453;-77
2023/04/26 01:48:41;;;;;;;15.50;6.90;;;;;;;2.93;100.00;101610.97;4898875;29;20146;-76
2023/04/26 01:51:06;;;;;;;20.98;7.18;;;;;;;2.84;100.00;101608.63;4906738;29;20101;-77
2023/04/26 01:53:32;;;;;;;24.95;8.70;;;;;;;2.94;100.00;101597.41;4885222;29;20352;-76
2023/04/26 01:56:01;;;;;;;17.08;6.85;;;;;;;3.07;100.00;101608.69;4878204;29;20484;-77
2023/04/26 01:58:27;;;;;;;21.35;7.05;;;;;;;2.93;100.00;101609.16;4889245;29;20050;-76
2023/04/26 02:00:53;;;;;;;24.45;7.10;;;;;;;3.00;100.00;101604.44;4897670;29;20694;-76
2023/04/26 02:03:18;;;;;;;15.55;6.50;;;;;;;3.08;100.00;101596.94;4882187;29;20053;-76
2023/04/26 02:05:43;;;;;;;22.10;7.90;;;;;;;3.00;100.00;101598.13;4878472;29;20106;-76
2023/04/26 02:08:09;;;;;;;20.83;7.72;;;;;;;2.97;100.00;101600.94;4877195;29;20128;-75
2023/04/26 02:10:35;;;;;;;26.23;8.60;;;;;;;2.97;100.00;101609.97;4880062;29;20025;-76
2023/04/26 02:13:03;;;;;;;15.38;6.53;;;;;;;3.01;100.00;101600.78;4880793;29;20055;-76
2023/04/26 02:15:29;;;;;;;15.52;7.38;;;;;;;2.73;100.00;101599.03;4896488;29;20048;-76
2023/04/26 02:17:55;;;;;;;20.00;7.00;;;;;;;2.57;100.00;101601.41;4901421;29;20055;-76
2023/04/26 02:20:20;;;;;;;21.63;7.43;;;;;;;2.55;100.00;101608.66;4894889;29;20056;-76
2023/04/26 02:22:46;;;;;;;18.98;6.78;;;;;;;2.71;100.00;101613.56;4866794;29;20043;-76
2023/04/26 02:25:11;;;;;;;15.32;6.95;;;;;;;2.76;100.00;101611.59;4910369;29;20392;-76
2023/04/26 02:27:37;;;;;;;26.60;7.55;;;;;;;2.80;100.00;101606.94;4871152;29;20045;-76
2023/04/26 02:30:03;;;;;;;28.50;7.40;;;;;;;2.92;100.00;101606.53;4902598;29;20036;-77
2023/04/26 02:32:29;;;;;;;35.42;7.50;;;;;;;2.83;100.00;101601.44;4898159;29;20488;-76
2023/04/26 02:34:55;;;;;;;17.63;6.57;;;;;;;2.78;100.00;101598.00;4881677;29;20051;-75
2023/04/26 02:37:21;;;;;;;22.20;6.80;;;;;;;2.74;100.00;101606.22;4896198;29;20044;-76
2023/04/26 02:39:50;;;;;;;16.75;6.38;;;;;;;2.81;100.00;101589.78;4854068;29;20575;-76
2023/04/26 02:42:16;;;;;;;17.85;6.38;;;;;;;2.70;100.00;101596.44;4882662;29;20444;-76
2023/04/26 02:44:41;;;;;;;12.85;6.28;;;;;;;2.75;100.00;101577.34;4886347;29;20127;-76
2023/04/26 02:47:10;;;;;;;18.92;6.55;;;;;;;2.71;100.00;101581.13;4903804;29;20044;-76
2023/04/26 02:49:35;;;;;;;19.90;6.80;;;;;;;2.45;100.00;101596.41;4895995;29;20048;-76
2023/04/26 02:52:01;;;;;;;18.38;7.03;;;;;;;2.37;100.00;101603.88;4898698;29;20062;-76
2023/04/26 02:54:26;;;;;;;22.38;7.30;;;;;;;2.50;100.00;101596.25;4888877;29;20044;-76
2023/04/26 02:56:52;;;;;;;23.38;7.20;;;;;;;2.67;100.00;101591.16;4898003;29;20032;-76
2023/04/26 02:59:17;;;;;;;22.80;6.97;;;;;;;2.67;100.00;101591.16;4894817;29;20072;-77
2023/04/26 03:01:43;;;;;;;16.77;6.25;;;;;;;2.62;100.00;101592.25;4907586;29;20042;-76
2023/04/26 03:04:08;;;;;;;28.75;7.45;;;;;;;2.69;100.00;101588.38;4903145;29;20064;-76
2023/04/26 03:06:34;;;;;;;23.40;6.88;;;;;;;2.54;100.00;101584.38;4885439;29;20037;-76
2023/04/26 03:09:04;;;;;;;18.73;7.05;;;;;;;2.65;100.00;101581.31;4909999;29;20092;-75
2023/04/26 03:11:30;;;;;;;14.45;6.03;;;;;;;2.69;100.00;101586.56;4887847;29;20040;-76
2023/04/26 03:13:55;;;;;;;21.02;6.65;;;;;;;2.54;100.00;101574.47;4889118;29;20128;-79
2023/04/26 03:16:22;;;;;;;17.70;6.00;;;;;;;2.55;100.00;101589.72;4872481;29;20121;-75
2023/04/26 03:18:47;;;;;;;19.48;6.95;;;;;;;2.51;100.00;101579.06;4894234;29;20033;-76
2023/04/26 03:21:13;;;;;;;16.75;7.25;;;;;;;2.62;100.00;101579.59;4880915;29;20040;-76
2023/04/26 03:23:38;;;;;;;16.23;6.35;;;;;;;2.55;100.00;101575.34;4906884;29;20043;-76
2023/04/26 03:26:04;;;;;;;23.35;7.18;;;;;;;2.58;100.00;101583.34;4910026;29;20099;-77
2023/04/26 03:28:29;;;;;;;17.60;7.22;;;;;;;2.33;100.00;101581.47;4875081;29;20465;-75
2023/04/26 03:30:55;;;;;;;13.50;6.97;;;;;;;2.43;100.00;101581.16;4918074;29;20065;-76
2023/04/26 03:33:20;;;;;;;18.02;6.82;;;;;;;2.29;100.00;101576.22;4916553;29;20507;-76
2023/04/26 03:35:46;;;;;;;16.83;7.53;;;;;;;2.31;100.00;101566.22;4904434;29;20063;-77
2023/04/26 03:38:12;;;;;;;17.92;7.40;;;;;;;2.29;100.00;101570.81;4884199;29;20068;-77
2023/04/26 03:40:37;;;;;;;19.38;7.43;;;;;;;2.18;100.00;101566.66;4894075;29;20095;-77
2023/04/26 03:43:02;;;;;;;19.27;7.57;;;;;;;2.30;100.00;101570.75;4857724;29;20137;-78
2023/04/26 03:45:28;;;;;;;15.52;6.85;;;;;;;2.28;100.00;101578.03;4904395;29;20131;-75
2023/04/26 03:47:53;;;;;;;16.83;7.03;;;;;;;2.24;100.00;101570.97;4914077;29;20052;-76
2023/04/26 03:50:19;;;;;;;28.27;7.07;;;;;;;2.16;100.00;101568.50;4882456;29;20036;-76
2023/04/26 03:52:45;;;;;;;18.92;8.07;;;;;;;2.16;100.00;101576.59;4896540;29;20048;-77
2023/04/26 03:55:10;;;;;;;17.60;6.53;;;;;;;2.06;100.00;101566.16;4909403;29;20176;-76
2023/04/26 03:57:36;;;;;;;19.70;7.20;;;;;;;2.23;100.00;101571.00;4898628;29;20110;-75
2023/04/26 04:00:09;;;;;;;23.70;7.30;;;;;;;2.20;100.00;101569.31;4911908;29;20038;-76
2023/04/26 04:02:34;;;;;;;24.27;8.95;;;;;;;2.24;100.00;101567.38;4900693;29;20089;-76
2023/04/26 04:05:03;;;;;;;21.23;8.57;;;;;;;2.28;100.00;101572.66;4866365;29;20059;-76
2023/04/26 04:07:29;;;;;;;17.52;7.05;;;;;;;2.25;100.00;101577.25;4884395;29;20037;-76
2023/04/26 04:09:54;;;;;;;26.60;8.13;;;;;;;2.26;100.00;101579.03;4869614;29;20036;-76
2023/04/26 04:12:21;;;;;;;17.63;7.32;;;;;;;2.36;100.00;101573.28;4857409;29;20044;-75
2023/04/26 04:14:47;;;;;;;23.67;8.57;;;;;;;2.34;100.00;101575.13;4868843;29;20507;-77
2023/04/26 04:17:12;;;;;;;23.08;8.35;;;;;;;2.26;100.00;101569.09;4889548;29;20037;-77
2023/04/26 04:19:39;;;;;;;24.38;8.90;;;;;;;2.13;100.00;101562.31;4861427;29;20504;-76
2023/04/26 04:22:04;;;;;;;15.40;7.20;;;;;;;2.33;100.00;101569.78;4865985;29;20171;-76
2023/04/26 04:24:31;;;;;;;26.60;7.97;;;;;;;2.20;100.00;101574.72;4844170;29;20045;-76
2023/04/26 04:26:56;;;;;;;20.88;7.93;;;;;;;2.31;100.00;101577.03;4886870;29;20049;-77
2023/04/26 04:29:22;;;;;;;18.77;7.45;;;;;;;2.05;100.00;101573.41;4888594;29;20130;-77
2023/04/26 04:31:47;;;;;;;22.42;8.02;;;;;;;2.23;100.00;101581.81;4855977;29;20083;-77
2023/04/26 04:34:13;;;;;;;22.73;9.23;;;;;;;2.29;100.00;101578.91;4869994;29;20049;-76
2023/04/26 04:36:39;;;;;;;18.85;8.32;;;;;;;2.40;100.00;101579.47;4884992;29;20053;-77
2023/04/26 04:39:11;;;;;;;22.23;7.93;;;;;;;2.37;100.00;101590.34;4883885;29;20055;-77
2023/04/26 04:41:46;;;;;;;21.10;8.43;;;;;;;2.36;100.00;101589.50;4875093;29;20028;-77
2023/04/26 04:44:12;;;;;;;22.73;8.55;;;;;;;2.23;100.00;101587.22;4886405;29;20045;-76
2023/04/26 04:46:37;;;;;;;28.90;8.10;;;;;;;2.32;100.00;101592.34;4880879;29;20048;-77
2023/04/26 04:49:02;;;;;;;20.08;8.52;;;;;;;2.47;100.00;101586.41;4847207;29;20204;-76
2023/04/26 04:51:28;;;;;;;28.35;9.43;;;;;;;2.51;100.00;101587.19;4880090;29;20047;-76
2023/04/26 04:53:53;;;;;;;23.92;9.23;;;;;;;2.55;100.00;101596.97;4870545;29;20037;-75
2023/04/26 04:56:20;;;;;;;24.42;9.20;;;;;;;2.61;100.00;101599.47;4864280;29;20043;-78
2023/04/26 04:58:46;;;;;;;26.77;8.82;;;;;;;2.51;100.00;101595.28;4870889;29;20043;-77
2023/04/26 05:01:12;;;;;;;17.00;7.95;;;;;;;2.67;100.00;101596.56;4877250;29;20450;-77
2023/04/26 05:03:38;;;;;;;18.40;8.38;;;;;;;2.73;100.00;101599.03;4844023;29;20052;-76
2023/04/26 05:06:04;;;;;;;24.75;9.63;;;;;;;2.62;100.00;101603.94;4895719;29;20048;-76
2023/04/26 05:08:30;;;;;;;33.80;9.07;;;;;;;2.64;100.00;101607.47;4865000;29;20048;-76
2023/04/26 05:10:55;;;;;;;21.85;9.25;;;;;;;2.75;100.00;101604.41;4897672;29;20040;-76
2023/04/26 05:13:21;;;;;;;20.90;9.25;;;;;;;2.88;100.00;101608.44;4898615;29;20494;-76
2023/04/26 05:15:46;;;;;;;24.25;9.15;;;;;;;3.05;100.00;101609.66;4863631;29;20092;-75
2023/04/26 05:18:12;;;;;;;29.95;10.25;;;;;;;3.06;100.00;101616.84;4879203;29;20041;-77
2023/04/26 05:20:37;;;;;;;26.98;9.52;;;;;;;3.05;100.00;101615.06;4885932;29;20115;-77
2023/04/26 05:23:03;;;;;;;26.98;10.23;;;;;;;3.03;100.00;101615.13;4890827;29;20028;-76
2023/04/26 05:25:28;;;;;;;17.27;9.10;;;;;;;3.34;100.00;101610.44;4876471;29;20497;-77
2023/04/26 05:27:54;;;;;;;32.10;10.30;;;;;;;3.57;100.00;101624.00;4865746;29;20053;-76
2023/04/26 05:30:19;;;;;;;28.50;11.38;;;;;;;3.73;100.00;101626.16;4899781;29;20120;-76
2023/04/26 05:32:45;;;;;;;33.75;10.90;;;;;;;3.99;100.00;101625.13;4880241;29;20493;-77
2023/04/26 05:35:10;;;;;;;24.05;10.30;;;;;;;4.16;100.00;101629.88;4897305;29;20037;-77
2023/04/26 05:37:38;;;;;;;18.10;9.07;;;;;;;4.45;100.00;101630.53;4881647;29;20036;-77
2023/04/26 05:40:04;;;;;;;22.95;10.00;;;;;;;4.47;100.00;101626.81;4864645;29;20073;-78
2023/04/26 05:42:29;;;;;;;24.60;9.93;;;;;;;4.41;100.00;101625.25;4866147;29;20185;-75
2023/04/26 05:44:58;;;;;;;24.60;9.95;;;;;;;4.62;100.00;101625.28;4862292;29;20123;-75
2023/04/26 05:47:23;;;;;;;29.90;9.95;;;;;;;4.64;100.00;101630.63;4881868;29;20081;-78
2023/04/26 05:49:49;;;;;;;24.25;10.20;;;;;;;4.68;100.00;101632.28;4880573;29;20052;-78
2023/04/26 05:52:14;;;;;;;27.65;10.50;;;;;;;4.78;100.00;101630.94;4881539;29;20453;-78
2023/04/26 05:54:40;;;;;;;24.65;10.65;;;;;;;4.79;100.00;101630.88;4879622;29;20520;-77
2023/04/26 05:57:05;;;;;;;22.48;10.45;;;;;;;4.74;100.00;101630.19;4880638;29;20385;-77
2023/04/26 05:59:35;;;;;;;24.08;10.23;;;;;;;4.81;100.00;101630.81;4862840;29;20184;-77
2023/04/26 06:02:00;;;;;;;22.67;10.38;;;;;;;4.71;100.00;101643.88;4898363;29;20048;-77
2023/04/26 06:04:26;;;;;;;25.60;10.60;;;;;;;4.92;100.00;101633.06;4881313;29;20057;-77
2023/04/26 06:06:51;;;;;;;19.40;9.52;;;;;;;4.84;100.00;101637.94;4873366;29;20489;-77
2023/04/26 06:09:17;;;;;;;23.02;10.13;;;;;;;4.93;100.00;101641.13;4878067;29;20035;-80
2023/04/26 06:11:42;;;;;;;27.00;9.82;;;;;;;4.92;100.00;101638.47;4886693;29;20048;-77
2023/04/26 06:14:08;;;;;;;24.95;10.15;;;;;;;5.13;100.00;101640.28;4867314;29;20508;-78
2023/04/26 06:16:33;;;;;;;29.92;9.85;;;;;;;5.51;100.00;101640.41;4864333;29;20044;-75
2023/04/26 06:18:58;;;;;;;27.40;10.70;;;;;;;5.71;100.00;101642.22;4873219;29;20124;-78
2023/04/26 06:21:25;;;;;;;22.60;10.00;;;;;;;5.80;100.00;101637.31;4884858;29;20185;-76
2023/04/26 06:23:50;;;;;;;27.02;10.07;;;;;;;6.08;100.00;101645.06;4888984;29;20051;-77
2023/04/26 06:26:16;;;;;;;25.92;9.27;;;;;;;6.11;100.00;101641.34;4885584;29;20041;-78
2023/04/26 06:28:41;;;;;;;20.50;8.23;;;;;;;6.09;100.00;101643.25;4890163;29;20056;-77
2023/04/26 06:31:07;;;;;;;22.55;8.65;;;;;;;6.37;100.00;101623.75;4882718;29;20044;-85
2023/04/26 06:33:32;;;;;;;16.83;8.35;;;;;;;6.54;100.00;101637.41;4875387;29;20041;-79
2023/04/26 06:35:58;;;;;;;25.52;7.88;;;;;;;7.21;100.00;101629.47;4881931;29;20044;-77
2023/04/26 06:38:23;;;;;;;19.95;7.47;;;;;;;7.27;100.00;101636.44;4899641;29;20048;-77
2023/04/26 06:40:48;;;;;;;18.48;7.47;;;;;;;7.45;100.00;101642.75;4895581;29;20043;-77
2023/04/26 06:43:14;;;;;;;20.42;7.25;;;;;;;7.55;100.00;101647.63;4898089;29;20067;-78
2023/04/26 06:45:39;;;;;;;28.70;7.75;;;;;;;7.64;100.00;101654.44;4869362;29;20044;-78
2023/04/26 06:48:05;;;;;;;21.20;7.18;;;;;;;7.56;100.00;101653.97;4868653;29;20041;-76
2023/04/26 06:50:31;;;;;;;14.00;6.95;;;;;;;7.28;100.00;101658.16;4895552;29;20232;-77
2023/04/26 06:52:56;;;;;;;20.60;5.35;;;;;;;7.44;100.00;101657.34;4897001;29;20036;-76
2023/04/26 06:55:22;;;;;;;19.42;6.25;;;;;;;7.25;100.00;101657.44;4896296;29;20117;-75
2023/04/26 06:57:49;;;;;;;17.52;6.38;;;;;;;7.48;100.00;101659.81;4897177;29;20044;-76
2023/04/26 07:00:15;;;;;;;20.00;7.25;;;;;;;8.01;100.00;101660.59;4884531;29;20098;-78
2023/04/26 07:02:40;;;;;;;25.70;6.30;;;;;;;8.45;100.00;101659.97;4883470;29;20041;-76
2023/04/26 07:05:06;;;;;;;12.70;5.20;;;;;;;8.54;100.00;101669.44;4888262;29;20067;-77
2023/04/26 07:07:32;;;;;;;21.23;5.32;;;;;;;8.23;100.00;101659.38;4893885;29;20049;-75
2023/04/26 07:09:57;;;;;;;16.77;5.90;;;;;;;8.24;100.00;101672.94;4891445;29;20091;-76
2023/04/26 07:12:22;;;;;;;13.65;5.63;;;;;;;7.92;100.00;101674.75;4893505;29;20045;-77
2023/04/26 07:14:48;;;;;;;21.60;5.95;;;;;;;7.84;100.00;101666.97;4866292;29;20037;-77
2023/04/26 07:17:13;;;;;;;17.20;4.70;;;;;;;7.61;100.00;101661.88;4891315;29;20177;-77
2023/04/26 07:19:39;;;;;;;12.50;4.72;;;;;;;7.79;100.00;101665.44;4880151;29;20105;-76
2023/04/26 07:22:05;;;;;;;9.65;4.07;;;;;;;7.80;100.00;101665.38;4883139;29;20486;-76
2023/04/26 07:24:30;;;;;;;15.57;4.53;;;;;;;8.14;100.00;101655.31;4893961;29;20041;-76
2023/04/26 07:26:56;;;;;;;13.63;4.32;;;;;;;8.08;100.00;101661.13;4865118;29;20710;-77
2023/04/26 07:29:22;;;;;;;15.68;5.20;;;;;;;8.23;100.00;101663.00;4881911;29;20497;-77
2023/04/26 07:31:48;;;;;;;14.65;4.93;;;;;;;8.64;100.00;101669.81;4887918;29;20115;-76
2023/04/26 07:34:13;;;;;;;18.45;5.20;;;;;;;8.34;100.00;101662.38;4887979;29;20485;-77
2023/04/26 07:36:39;;;;;;;16.63;5.25;;;;;;;8.18;100.00;101662.38;4884338;29;20045;-77
2023/04/26 07:39:05;;;;;;;20.35;4.88;;;;;;;8.46;100.00;101659.00;4846408;29;20405;-78
2023/04/26 07:41:30;;;;;;;21.10;6.18;;;;;;;8.37;100.00;101661.34;4883298;29;20044;-78
2023/04/26 07:43:56;;;;;;;16.42;5.15;;;;;;;8.71;100.00;101657.56;4887543;29;20041;-77
2023/04/26 07:46:22;;;;;;;14.00;3.65;;;;;;;8.95;100.00;101668.00;4867932;29;20040;-77
2023/04/26 07:48:47;;;;;;;10.80;3.45;;;;;;;9.03;100.00;101657.50;4882134;29;20029;-78
2023/04/26 07:51:13;;;;;;;13.07;4.57;;;;;;;9.10;100.00;101647.09;4893889;29;20041;-78
2023/04/26 07:53:39;;;;;;;13.75;4.50;;;;;;;8.92;100.00;101649.97;4881590;29;20041;-78
2023/04/26 07:56:09;;;;;;;12.32;4.60;;;;;;;9.01;100.00;101652.13;4892949;29;20207;-77
2023/04/26 07:58:35;;;;;;;7.15;3.70;;;;;;;9.08;100.00;101651.78;4887169;29;20068;-77
2023/04/26 08:01:02;;;;;;;12.45;3.22;;;;;;;9.13;100.00;101649.66;4882026;29;20128;-77
2023/04/26 08:03:27;;;;;;;10.98;3.05;;;;;;;9.24;100.00;101647.16;4891016;28;20535;-78
2023/04/26 08:05:53;;;;;;;8.23;2.75;;;;;;;10.04;98.55;101655.84;4894000;29;20042;-78
2023/04/26 08:08:20;;;;;;;13.48;3.17;;;;;;;10.10;87.79;101651.81;4888003;29;20467;-78
2023/04/26 08:10:46;;;;;;;9.15;2.72;;;;;;;10.02;99.03;101652.34;4892360;29;20509;-78
2023/04/26 08:13:12;;;;;;;7.65;2.20;;;;;;;10.13;89.34;101659.84;4881153;29;20037;-78
2023/04/26 08:15:37;;;;;;;6.97;2.35;;;;;;;9.51;94.43;101660.09;4898646;29;20033;-79
2023/04/26 08:18:03;;;;;;;11.30;2.38;;;;;;;8.79;92.84;101658.00;4876062;29;20037;-78
2023/04/26 08:20:28;;;;;;;10.25;2.72;;;;;;;8.95;98.38;101658.00;4885761;29;20145;-77
2023/04/26 08:22:57;;;;;;;10.40;3.20;;;;;;;8.90;95.91;101661.94;4899410;29;20036;-78
2023/04/26 08:25:23;;;;;;;8.48;2.53;;;;;;;9.57;98.45;101655.16;4871298;29;20037;-78
2023/04/26 08:27:49;;;;;;;12.70;3.25;;;;;;;9.51;96.88;101673.75;4889721;29;20035;-78
2023/04/26 08:30:15;;;;;;;7.40;2.55;;;;;;;8.94;98.93;101678.06;4898051;29;20037;-78
2023/04/26 08:32:41;;;;;;;13.38;2.58;;;;;;;9.16;96.83;101668.59;4888446;29;20450;-77
2023/04/26 08:35:08;;;;;;;6.05;2.03;;;;;;;8.98;93.24;101679.63;4890597;29;20079;-77
2023/04/26 08:37:34;;;;;;;8.57;2.35;;;;;;;9.06;97.05;101678.31;4873526;29;20495;-77
2023/04/26 08:40:02;;;;;;;15.32;3.20;;;;;;;9.34;97.30;101675.66;4882866;29;20489;-77
2023/04/26 08:42:27;;;;;;;15.48;3.17;;;;;;;9.15;96.20;101675.00;4880641;29;20092;-78
2023/04/26 08:44:53;;;;;;;7.63;2.42;;;;;;;9.07;97.58;101667.31;4878216;29;20044;-78
2023/04/26 08:47:38;;;;;;;8.43;2.53;;;;;;;8.90;97.98;101657.34;4881479;29;20125;-77
2023/04/26 08:50:05;;;;;;;12.95;2.72;;;;;;;9.17;97.40;101662.16;4906438;29;20041;-77
2023/04/26 08:52:31;;;;;;;12.68;3.08;;;;;;;8.93;96.77;101669.97;4886626;29;20485;-77
2023/04/26 08:54:58;;;;;;;7.20;2.75;;;;;;;8.70;100.00;101665.84;4893095;29;20786;-77
2023/04/26 08:57:24;;;;;;;12.63;2.60;;;;;;;8.71;95.03;101664.91;4885006;29;20041;-77
2023/04/26 08:59:51;;;;;;;12.48;2.70;;;;;;;8.83;100.00;101659.56;4859126;29;20045;-75
2023/04/26 09:02:19;;;;;;;12.07;2.40;;;;;;;9.18;92.09;101662.06;4879908;29;20044;-77
2023/04/26 09:04:46;;;;;;;6.13;1.40;;;;;;;9.85;76.83;101664.31;4892431;29;20053;-75
2023/04/26 09:07:20;;;;;;;7.03;2.10;;;;;;;9.81;80.94;101650.97;4864230;29;20108;-77
2023/04/26 09:09:51;;;;;;;14.25;2.40;;;;;;;9.39;84.48;101650.78;4886138;29;20039;-76
2023/04/26 09:12:20;;;;;;;11.07;2.80;;;;;;;9.58;80.53;101647.81;4897497;29;20037;-77
2023/04/26 09:14:46;;;;;;;5.50;2.22;;;;;;;10.06;75.12;101647.53;4858166;29;20041;-77
2023/04/26 09:17:33;;;;;;;8.48;2.47;;;;;;;9.65;74.63;101660.13;4891877;29;20091;-76
2023/04/26 09:20:00;;;;;;;10.60;1.77;;;;;;;9.56;76.51;101663.44;4888008;29;20068;-76
2023/04/26 09:22:28;;;;;;;8.63;2.35;;;;;;;9.06;83.29;101651.88;4883788;29;20045;-77
2023/04/26 09:24:55;;;;;;;14.88;2.50;;;;;;;8.91;83.34;101653.66;4887344;29;20045;-77
2023/04/26 09:27:21;;;;;;;6.30;2.20;;;;;;;9.08;82.63;101651.78;4890571;29;20059;-77
2023/04/26 09:30:11;;;;;;;6.53;2.08;;;;;;;8.95;84.01;101655.25;4862281;29;20033;-77
2023/04/26 09:32:55;;;;;;;6.45;1.50;;;;;;;9.17;75.09;101660.31;4881517;29;20044;-77
2023/04/26 09:35:38;;;;;;;9.48;1.95;;;;;;;9.22;76.78;101649.09;4885742;29;20045;-77
2023/04/26 09:38:15;;;;;;;7.47;1.70;;;;;;;9.35;77.09;101661.03;4901645;29;20076;-77
2023/04/26 09:40:50;;;;;;;6.72;1.65;;;;;;;9.66;73.15;101655.53;4910521;29;20036;-77
2023/04/26 09:43:18;;;;;;;7.03;1.77;;;;;;;9.93;71.99;101658.38;4912041;29;20033;-78
2023/04/26 09:45:44;;;;;;;6.43;1.77;;;;;;;10.43;70.37;101653.41;4893023;29;20117;-77
2023/04/26 09:48:30;;;;;;;4.00;1.58;;;;;;;10.78;69.62;101655.66;4885985;29;20528;-77
2023/04/26 09:51:02;;;;;;;7.40;1.67;;;;;;;10.54;68.14;101649.94;4884571;29;20033;-77
2023/04/26 09:53:54;;;;;;;4.85;2.05;;;;;;;11.20;66.75;101650.97;4901664;29;20037;-77
2023/04/26 09:56:20;;;;;;;8.10;1.97;;;;;;;10.72;65.61;101648.69;4885646;29;20072;-77
2023/04/26 09:58:52;;;;;;;9.00;2.15;;;;;;;10.33;68.69;101646.75;4896363;29;20055;-77
2023/04/26 10:01:19;;;;;;;6.90;1.70;;;;;;;10.39;68.74;101641.75;4906224;29;20036;-77
2023/04/26 10:03:45;;;;;;;5.00;1.50;;;;;;;10.42;70.37;101640.69;4894028;29;20104;-77
2023/04/26 10:06:15;;;;;;;4.05;1.35;;;;;;;9.93;65.47;101636.50;4895099;29;20100;-77
2023/04/26 10:08:42;;;;;;;6.72;1.60;;;;;;;9.91;60.76;101644.78;4890561;29;20047;-77
2023/04/26 10:11:11;;;;;;;7.47;1.95;;;;;;;9.92;63.65;101635.63;4892182;29;20448;-76
2023/04/26 10:13:38;;;;;;;7.25;1.48;;;;;;;10.19;66.96;101632.06;4884653;29;20121;-76
2023/04/26 10:16:05;;;;;;;4.85;1.75;;;;;;;10.38;66.74;101642.75;4887887;29;20048;-76
2023/04/26 10:18:31;;;;;;;7.05;2.55;;;;;;;10.65;66.09;101633.66;4894713;29;20044;-77
2023/04/26 10:21:01;;;;;;;9.93;1.85;;;;;;;10.59;63.57;101636.81;4896732;29;20503;-77
2023/04/26 10:23:27;;;;;;;10.00;1.50;;;;;;;10.32;65.10;101634.94;4869638;29;20040;-76
2023/04/26 10:25:53;;;;;;;12.93;1.75;;;;;;;10.72;59.75;101647.81;4902837;29;20092;-77
2023/04/26 10:28:48;;;;;;;4.00;1.88;;;;;;;10.35;63.10;101642.06;4879903;29;20072;-76
2023/04/26 10:31:13;;;;;;;4.13;1.60;;;;;;;10.04;66.17;101635.81;4881132;29;20049;-76
2023/04/26 10:33:39;;;;;;;7.05;1.70;;;;;;;9.82;66.63;101633.56;4912171;29;20066;-77
2023/04/26 10:36:08;;;;;;;6.45;1.90;;;;;;;9.98;69.08;101631.59;4886103;29;20119;-77
2023/04/26 10:39:01;;;;;;;9.63;1.70;;;;;;;9.98;67.30;101631.59;4901027;29;20036;-76
2023/04/26 10:41:32;;;;;;;6.10;1.85;;;;;;;9.98;68.07;101628.88;4903409;29;20411;-77
2023/04/26 10:44:19;;;;;;;6.40;1.83;;;;;;;9.98;68.19;101633.47;4901062;29;20047;-77
2023/04/26 10:46:50;;;;;;;8.88;2.33;;;;;;;10.47;66.66;101631.16;4910736;29;20032;-77
2023/04/26 10:49:18;;;;;;;6.03;2.00;;;;;;;10.39;64.03;101630.78;4898702;29;20041;-77
2023/04/26 10:52:13;;;;;;;8.80;2.25;;;;;;;10.52;65.40;101627.25;4901168;29;20064;-77
2023/04/26 10:54:52;;;;;;;5.70;1.60;;;;;;;11.04;60.70;101626.47;4885365;29;20592;-77
2023/04/26 10:57:18;;;;;;;5.97;2.08;;;;;;;11.12;63.35;101624.06;4916480;29;20032;-77
2023/04/26 11:00:15;;;;;;;5.68;2.13;;;;;;;11.53;59.66;101625.78;4918172;29;20094;-77
2023/04/26 11:02:57;;;;;;;8.43;2.50;;;;;;;11.19;61.30;101619.91;4885745;29;20048;-77
2023/04/26 11:05:41;;;;;;;7.18;1.70;;;;;;;11.32;61.74;101619.94;4889088;29;20049;-76
2023/04/26 11:08:12;;;;;;;9.45;2.42;;;;;;;10.68;60.86;101617.03;4900003;29;20481;-77
2023/04/26 11:10:38;;;;;;;9.90;2.00;;;;;;;10.38;63.37;101609.91;4882042;29;20489;-76
2023/04/26 11:13:04;;;;;;;6.78;2.10;;;;;;;10.70;62.93;101617.81;4870880;29;20040;-76
2023/04/26 11:15:30;;;;;;;3.67;1.70;;;;;;;10.79;59.46;101613.56;4898903;29;20076;-77
2023/04/26 11:17:56;;;;;;;6.35;1.80;;;;;;;10.66;58.25;101606.19;4894047;29;20071;-77
2023/04/26 11:20:22;;;;;;;4.20;1.83;;;;;;;9.93;60.88;101607.28;4880580;29;20517;-77